Terminal Aerodrome Forecast
Issued by NWS Buffalo, NY

Home | Current Version | Previous Version | Text Only | Print | Product List | Glossary On
Versions: 1 2 3 4 5 6 7 8 9 10 11 12 13 14 15 16 17 18 19 20 21 22 23 24
000
FTUS41 KBUF 230900 AAA
TAFART
TAF AMD
KART 230916Z 2309/2406 21012G18KT P6SM FEW250
     FM231200 22012G18KT P6SM -SHRA OVC050
     FM231300 22012G18KT P6SM -TSRA OVC035CB
     FM231900 29008KT P6SM BKN030
     FM232100 35006KT P6SM BKN030
     FM240100 36005KT P6SM SCT035=

USA.gov is the U.S. government's official web portal to all federal, state and local government web resources and services.